Time;durP1;ratioP1;P1;durP2;ratioP2;P2;SDS_P1;SDS_P2;PMS_P1;PMS_P2;Temp;Humidity;BMP_temperature;BMP_pressure;BME280_temperature;BME280_humidity;BME280_pressure;Samples;Min_cycle;Max_cycle;Signal;HPM_P1;HPM_P2
2022/12/10 00:01:34;;;;;;;5.13;4.78;;;;;;;-3.44;100.00;100375.00;6042172;23;20024;-76
2022/12/10 00:04:02;;;;;;;5.30;4.85;;;;;;;-3.77;100.00;100328.81;6040415;23;20030;-76
2022/12/10 00:06:31;;;;;;;5.10;4.70;;;;;;;-3.21;100.00;100434.03;6040568;23;20023;-76
2022/12/10 00:08:59;;;;;;;3.88;3.67;;;;;;;-3.71;100.00;100370.72;5989528;23;20415;-76
2022/12/10 00:11:26;;;;;;;7.13;6.20;;;;;;;-3.09;100.00;100452.81;6009919;23;20058;-76
2022/12/10 00:13:53;;;;;;;4.50;4.20;;;;;;;-3.71;100.00;100347.66;6057128;23;20050;-75
2022/12/10 00:16:22;;;;;;;4.32;4.03;;;;;;;-2.95;100.00;100476.75;6015976;23;20034;-73
2022/12/10 00:18:49;;;;;;;5.18;4.68;;;;;;;-3.24;100.00;100480.19;6011004;23;20090;-75
2022/12/10 00:21:18;;;;;;;4.00;3.80;;;;;;;-3.16;100.00;100497.31;6025455;23;20102;-76
2022/12/10 00:23:45;;;;;;;5.47;4.97;;;;;;;-3.02;100.00;100483.63;6036875;23;20032;-75
2022/12/10 00:26:23;;;;;;;4.82;4.53;;;;;;;-3.51;100.00;100398.91;6036918;23;20030;-75
2022/12/10 00:28:50;;;;;;;3.60;3.40;;;;;;;-3.14;100.00;100467.38;6015125;23;20101;-76
2022/12/10 00:31:29;;;;;;;3.63;3.42;;;;;;;-3.39;100.00;100425.44;6065224;23;20314;-75
2022/12/10 00:33:58;;;;;;;6.30;5.70;;;;;;;-3.23;100.00;100460.50;6033888;23;20030;-76
2022/12/10 00:36:28;;;;;;;5.45;4.95;;;;;;;-4.04;100.00;100344.19;6065307;23;20010;-76
2022/12/10 00:38:55;;;;;;;4.35;4.15;;;;;;;-3.68;100.00;100395.50;6048735;23;20090;-76
2022/12/10 00:41:22;;;;;;;5.55;5.13;;;;;;;-3.50;100.00;100418.59;6020131;23;20019;-75
2022/12/10 00:43:48;;;;;;;11.65;5.15;;;;;;;-3.36;100.00;100446.84;6020181;23;20024;-75
2022/12/10 00:46:16;;;;;;;11.75;4.32;;;;;;;-3.76;100.00;100392.09;6041749;23;20011;-76
2022/12/10 00:48:43;;;;;;;11.15;5.65;;;;;;;-4.03;100.00;100393.72;6017149;23;20021;-76
2022/12/10 00:51:22;;;;;;;8.48;5.47;;;;;;;-3.27;100.00;100467.38;6064612;23;20123;-76
2022/12/10 00:53:50;;;;;;;4.45;4.15;;;;;;;-3.27;100.00;100471.63;6020098;23;20014;-77
2022/12/10 00:56:20;;;;;;;3.88;3.58;;;;;;;-3.69;100.00;100402.34;6049553;23;20051;-75
2022/12/10 00:58:47;;;;;;;3.78;3.58;;;;;;;-3.75;100.00;100417.69;6049011;23;20574;-76
2022/12/10 01:01:39;;;;;;;5.32;4.13;;;;;;;-3.67;100.00;100415.16;6019184;23;20015;-75
2022/12/10 01:04:13;;;;;;;5.07;4.60;;;;;;;-3.48;100.00;100449.41;6021221;23;20470;-75
2022/12/10 01:06:51;;;;;;;6.10;5.53;;;;;;;-3.42;100.00;100475.06;6065358;23;20030;-76
2022/12/10 01:09:20;;;;;;;4.93;4.53;;;;;;;-3.52;100.00;100458.78;6039842;23;20072;-77
2022/12/10 01:11:48;;;;;;;5.25;4.95;;;;;;;-3.48;100.00;100464.78;6014411;23;20023;-74
2022/12/10 01:14:23;;;;;;;4.72;4.32;;;;;;;-3.49;100.00;100473.31;6070063;23;20026;-74
2022/12/10 01:16:54;;;;;;;4.05;3.85;;;;;;;-3.62;100.00;100457.91;6046483;23;20026;-76
2022/12/10 01:19:21;;;;;;;4.30;4.00;;;;;;;-3.69;100.00;100452.75;6075547;23;20030;-76
2022/12/10 01:21:54;;;;;;;4.57;4.30;;;;;;;-3.57;100.00;100481.00;6038754;23;20028;-76
2022/12/10 01:24:22;;;;;;;6.13;5.00;;;;;;;-3.59;100.00;100480.13;6073330;23;20016;-76
2022/12/10 01:26:50;;;;;;;4.15;3.75;;;;;;;-3.61;100.00;100480.16;5999708;23;20556;-76
2022/12/10 01:29:16;;;;;;;5.10;4.70;;;;;;;-3.88;100.00;100436.50;6040349;23;20576;-76
2022/12/10 01:31:43;;;;;;;4.28;3.97;;;;;;;-3.93;100.00;100448.44;6029173;23;20032;-75
2022/12/10 01:34:13;;;;;;;4.05;3.85;;;;;;;-3.64;100.00;100479.28;6077275;23;20054;-77
2022/12/10 01:36:42;;;;;;;5.00;4.60;;;;;;;-4.18;100.00;100398.81;6027639;23;20160;-76
2022/12/10 01:39:11;;;;;;;4.47;4.03;;;;;;;-4.09;100.00;100409.97;6076593;23;20029;-76
2022/12/10 01:41:41;;;;;;;4.55;4.15;;;;;;;-3.67;100.00;100485.28;6019513;23;20081;-75
2022/12/10 01:44:07;;;;;;;4.03;3.72;;;;;;;-3.66;100.00;100478.44;6015222;23;20522;-75
2022/12/10 01:46:37;;;;;;;6.60;5.47;;;;;;;-3.82;100.00;100468.13;6048802;23;20081;-75
2022/12/10 01:49:06;;;;;;;3.75;3.50;;;;;;;-4.12;100.00;100417.63;6029571;23;20022;-75
2022/12/10 01:51:35;;;;;;;5.93;2.92;;;;;;;-3.73;100.00;100500.63;6051091;23;20034;-75
2022/12/10 01:54:11;;;;;;;4.97;4.57;;;;;;;-3.77;100.00;100483.50;6024130;23;20038;-76
2022/12/10 01:56:43;;;;;;;4.95;4.57;;;;;;;-4.47;100.00;100404.66;6040723;23;20405;-76
2022/12/10 01:59:13;;;;;;;5.82;5.25;;;;;;;-3.79;100.00;100510.00;6022267;23;20020;-74
2022/12/10 02:01:45;;;;;;;5.15;4.72;;;;;;;-3.83;100.00;100498.88;6021435;23;20045;-74
2022/12/10 02:04:21;;;;;;;;;;;;;;;-3.86;100.00;100502.28;6026872;23;20097;-75
2022/12/10 02:06:56;;;;;;;3.45;3.25;;;;;;;-3.84;100.00;100507.44;5999407;23;19911;-75
2022/12/10 02:09:52;;;;;;;3.85;3.55;;;;;;;-3.86;100.00;100504.00;6030470;23;20026;-76
2022/12/10 02:12:42;;;;;;;4.40;4.13;;;;;;;-4.36;100.00;100428.63;6014859;23;20033;-76
2022/12/10 02:15:08;;;;;;;3.85;3.55;;;;;;;-3.94;100.00;100490.31;6011555;23;20106;-76
2022/12/10 02:17:48;;;;;;;3.20;3.10;;;;;;;-3.94;100.00;100503.97;6066485;23;20027;-74
2022/12/10 02:20:24;;;;;;;3.67;3.47;;;;;;;-3.95;100.00;100496.28;6019588;23;20003;-75
2022/12/10 02:22:58;;;;;;;4.43;4.13;;;;;;;-4.14;100.00;100473.13;6040540;23;20385;-76
2022/12/10 02:25:43;;;;;;;4.53;4.22;;;;;;;-4.01;100.00;100503.09;6014253;23;20228;-75
2022/12/10 02:28:47;;;;;;;3.92;3.65;;;;;;;-3.95;100.00;100501.41;6039888;23;20047;-75
2022/12/10 02:31:17;;;;;;;4.28;4.03;;;;;;;-4.27;100.00;100438.06;6022350;23;20166;-76
2022/12/10 02:33:49;;;;;;;3.20;3.10;;;;;;;-4.06;100.00;100476.59;6049937;23;20033;-75
2022/12/10 02:36:18;;;;;;;4.03;3.83;;;;;;;-3.87;100.00;100503.16;6053005;23;20030;-75
2022/12/10 02:38:47;;;;;;;4.30;3.60;;;;;;;-4.34;100.00;100403.88;6021921;23;20069;-78
2022/12/10 02:41:19;;;;;;;3.97;3.53;;;;;;;-4.21;100.00;100408.22;6037421;23;20045;-74
2022/12/10 02:43:49;;;;;;;8.98;3.15;;;;;;;-3.96;100.00;100431.34;6051898;23;20018;-77
2022/12/10 02:46:16;;;;;;;5.53;4.57;;;;;;;-4.17;100.00;100398.81;6002270;23;20081;-76
2022/12/10 02:48:42;;;;;;;2.60;2.40;;;;;;;-3.55;100.00;100488.69;6050029;23;20014;-75
2022/12/10 02:51:09;;;;;;;2.53;2.42;;;;;;;-4.31;100.00;100346.66;6015468;23;20019;-76
2022/12/10 02:53:44;;;;;;;3.47;3.20;;;;;;;-3.34;100.00;100493.88;6052357;23;20706;-77
2022/12/10 02:56:26;;;;;;;3.25;3.03;;;;;;;-4.40;100.00;100283.47;5995988;23;20035;-75
2022/12/10 02:59:19;;;;;;;3.83;3.63;;;;;;;-3.06;100.00;100489.63;6044352;23;20116;-75
2022/12/10 03:02:14;;;;;;;3.30;3.20;;;;;;;-2.92;100.00;100497.31;6029641;23;20033;-75
2022/12/10 03:05:00;;;;;;;3.47;3.28;;;;;;;-3.34;100.00;100401.50;6021700;23;20019;-76
2022/12/10 03:07:37;;;;;;;3.28;3.17;;;;;;;-3.24;100.00;100400.63;6054290;23;20462;-75
2022/12/10 03:10:17;;;;;;;4.43;4.03;;;;;;;-2.61;100.00;100490.44;5988690;23;20571;-75
2022/12/10 03:12:51;;;;;;;2.78;2.67;;;;;;;-2.51;100.00;100501.53;6073691;23;20022;-76
2022/12/10 03:15:19;;;;;;;10.57;3.55;;;;;;;-2.45;100.00;100498.97;6027445;23;20388;-75
2022/12/10 03:17:47;;;;;;;4.72;4.32;;;;;;;-2.88;100.00;100422.00;5983489;23;20647;-76
2022/12/10 03:20:15;;;;;;;5.28;4.80;;;;;;;-2.56;100.00;100469.88;6042181;23;20015;-76
2022/12/10 03:22:46;;;;;;;5.88;3.50;;;;;;;-2.38;100.00;100484.41;5982760;23;20034;-76
2022/12/10 03:25:18;;;;;;;4.05;3.72;;;;;;;-2.41;100.00;100477.56;6050069;23;20080;-75
2022/12/10 03:27:47;;;;;;;3.65;3.45;;;;;;;-2.17;100.00;100514.31;6052753;23;20021;-75
2022/12/10 03:30:13;;;;;;;3.30;3.17;;;;;;;-2.59;100.00;100436.47;6000094;23;20077;-75
2022/12/10 03:32:40;;;;;;;4.65;3.88;;;;;;;-2.71;100.00;100400.56;6074393;23;20022;-76
2022/12/10 03:35:07;;;;;;;4.03;3.72;;;;;;;-2.73;100.00;100387.72;6041972;23;20019;-75
2022/12/10 03:37:34;;;;;;;7.13;3.75;;;;;;;-2.54;100.00;100415.94;6018327;23;20018;-76
2022/12/10 03:40:03;;;;;;;7.80;5.55;;;;;;;-2.32;100.00;100452.69;6042318;23;20034;-76
2022/12/10 03:42:29;;;;;;;5.82;5.43;;;;;;;-1.98;100.00;100501.38;6069580;23;20124;-76
2022/12/10 03:44:56;;;;;;;5.10;4.60;;;;;;;-2.42;100.00;100449.28;6043618;23;20065;-75
2022/12/10 03:47:23;;;;;;;4.22;3.88;;;;;;;-2.79;100.00;100359.47;5994623;23;20106;-76
2022/12/10 03:49:49;;;;;;;4.75;4.35;;;;;;;-2.78;100.00;100344.94;6065176;23;20047;-75
2022/12/10 03:52:16;;;;;;;4.78;4.22;;;;;;;-2.09;100.00;100461.16;6044119;23;20044;-76
2022/12/10 03:54:42;;;;;;;4.63;4.30;;;;;;;-2.39;100.00;100404.75;6040678;23;20060;-75
2022/12/10 03:57:09;;;;;;;8.32;4.55;;;;;;;-1.91;100.00;100464.50;6038626;23;20048;-75
2022/12/10 03:59:35;;;;;;;4.07;3.88;;;;;;;-2.34;100.00;100410.72;6000748;23;20026;-75
2022/12/10 04:02:02;;;;;;;10.45;5.10;;;;;;;-2.21;100.00;100418.34;6049105;23;20030;-76
2022/12/10 04:04:29;;;;;;;3.80;3.50;;;;;;;-1.89;100.00;100466.19;6011742;23;20105;-75
2022/12/10 04:06:56;;;;;;;4.45;4.15;;;;;;;-3.10;100.00;100253.47;6039321;23;20025;-76
2022/12/10 04:09:22;;;;;;;5.07;4.68;;;;;;;-1.65;100.00;100490.09;6001219;23;20461;-75
2022/12/10 04:11:49;;;;;;;4.45;4.15;;;;;;;-2.16;100.00;100410.63;6035556;23;20044;-74
2022/12/10 04:17:00;;;;;;;4.18;3.88;;;;;;;-1.92;100.00;100445.66;6051890;23;20273;-78
2022/12/10 04:19:27;;;;;;;4.38;3.97;;;;;;;-1.63;100.00;100493.50;6016835;23;20606;-75
2022/12/10 04:27:26;;;;;;;6.35;3.75;;;;;;;-1.78;100.00;100471.31;6035146;23;20022;-76
2022/12/10 04:29:54;;;;;;;12.88;5.45;;;;;;;-1.58;100.00;100496.06;6013885;23;20038;-76
2022/12/10 04:32:21;;;;;;;4.65;4.20;;;;;;;-1.55;100.00;100496.06;6044804;23;20010;-75
2022/12/10 04:34:48;;;;;;;4.60;4.30;;;;;;;-1.55;100.00;100496.91;6045716;23;20101;-75
2022/12/10 04:37:15;;;;;;;5.63;5.13;;;;;;;-1.54;100.00;100493.47;6003412;23;20029;-75
2022/12/10 04:39:41;;;;;;;3.78;3.55;;;;;;;-1.83;100.00;100444.75;6009429;23;20070;-75
2022/12/10 04:42:08;;;;;;;4.18;3.97;;;;;;;-1.53;100.00;100523.47;6041349;23;20042;-75
2022/12/10 04:44:35;;;;;;;3.53;3.40;;;;;;;-1.81;100.00;100445.59;6022202;23;20305;-76
2022/12/10 04:47:03;;;;;;;3.10;3.00;;;;;;;-1.48;100.00;100501.16;6069307;23;20401;-75
2022/12/10 04:49:30;;;;;;;4.43;4.03;;;;;;;-1.48;100.00;100500.31;6039588;23;20027;-75
2022/12/10 04:51:57;;;;;;;4.70;4.40;;;;;;;-1.50;100.00;100505.47;6064630;23;20068;-75
2022/12/10 04:54:23;;;;;;;4.15;3.92;;;;;;;-1.47;100.00;100502.00;6016793;23;20027;-76
2022/12/10 04:56:50;;;;;;;4.70;4.40;;;;;;;-1.56;100.00;100489.19;6011839;23;20027;-75
2022/12/10 04:59:16;;;;;;;7.32;4.65;;;;;;;-1.50;100.00;100507.19;6039440;23;20230;-75
2022/12/10 05:01:43;;;;;;;3.92;3.63;;;;;;;-1.49;100.00;100503.72;6015503;23;20027;-76
2022/12/10 05:04:12;;;;;;;5.38;4.95;;;;;;;-2.07;100.00;100407.16;6060109;23;20018;-75
2022/12/10 05:06:39;;;;;;;3.42;3.22;;;;;;;-1.91;100.00;100437.06;6043443;23;20041;-77
2022/12/10 05:09:06;;;;;;;3.88;3.67;;;;;;;-1.70;100.00;100479.84;5997482;23;20035;-77
2022/12/10 05:11:33;;;;;;;4.75;3.97;;;;;;;-1.77;100.00;100457.56;6048199;23;20037;-75
2022/12/10 05:14:00;;;;;;;8.10;5.40;;;;;;;-1.92;100.00;100429.38;6006528;23;20027;-76
2022/12/10 05:16:29;;;;;;;3.65;3.45;;;;;;;-1.61;100.00;100477.19;6076164;23;20445;-77
2022/12/10 05:18:56;;;;;;;5.68;4.63;;;;;;;-1.63;100.00;100476.34;6041454;23;20276;-76
2022/12/10 05:21:24;;;;;;;4.53;4.13;;;;;;;-1.45;100.00;100495.97;6071570;23;20348;-75
2022/12/10 05:23:51;;;;;;;3.47;3.28;;;;;;;-1.65;100.00;100482.38;6044664;23;20010;-75
2022/12/10 05:26:23;;;;;;;4.07;3.67;;;;;;;-1.48;100.00;100498.59;5986238;23;20011;-77
2022/12/10 05:28:53;;;;;;;11.25;5.30;;;;;;;-1.48;100.00;100497.75;6068171;23;20033;-76
2022/12/10 05:31:20;;;;;;;3.63;3.42;;;;;;;-1.48;100.00;100493.44;6040451;23;20046;-75
2022/12/10 05:33:48;;;;;;;7.45;4.57;;;;;;;-1.48;100.00;100492.59;6012982;23;20039;-76
2022/12/10 05:36:18;;;;;;;4.45;4.00;;;;;;;-1.96;100.00;100423.41;6043212;23;20037;-76
2022/12/10 05:38:46;;;;;;;5.15;4.75;;;;;;;-1.56;100.00;100502.03;6042760;23;20069;-77
2022/12/10 05:41:21;;;;;;;4.40;4.10;;;;;;;-1.61;100.00;100496.94;6003328;23;20480;-75
2022/12/10 05:43:48;;;;;;;6.65;6.00;;;;;;;-1.93;100.00;100445.66;6073448;23;20575;-75
2022/12/10 05:46:18;;;;;;;5.75;4.88;;;;;;;-1.65;100.00;100502.97;5988555;23;20011;-76
2022/12/10 05:48:45;;;;;;;6.95;6.18;;;;;;;-2.09;100.00;100420.00;6069898;23;20065;-76
2022/12/10 05:51:14;;;;;;;4.22;3.92;;;;;;;-1.97;100.00;100457.66;6048230;18;20026;-76
2022/12/10 05:53:41;;;;;;;5.63;3.92;;;;;;;-1.67;100.00;100505.53;6079215;23;20026;-76
2022/12/10 05:56:13;;;;;;;4.50;4.20;;;;;;;-1.84;100.00;100481.63;6023458;23;20032;-76
2022/12/10 05:58:42;;;;;;;5.80;4.60;;;;;;;-1.71;100.00;100501.28;6004500;23;20026;-76
2022/12/10 06:01:21;;;;;;;6.53;5.90;;;;;;;-3.16;100.00;100271.47;6062558;23;20476;-78
2022/12/10 06:03:47;;;;;;;5.82;5.30;;;;;;;-1.74;100.00;100509.03;6033377;23;20029;-76
2022/12/10 06:06:19;;;;;;;3.97;3.78;;;;;;;-2.07;100.00;100476.56;6041383;23;20038;-75
2022/12/10 06:08:45;;;;;;;5.33;4.43;;;;;;;-2.45;100.00;100403.03;6031344;23;20027;-75
2022/12/10 06:11:12;;;;;;;12.48;5.18;;;;;;;-2.04;100.00;100474.84;6038150;23;20026;-77
2022/12/10 06:13:41;;;;;;;3.97;3.67;;;;;;;-2.25;100.00;100447.50;6038173;23;20031;-77
2022/12/10 06:16:10;;;;;;;3.30;3.20;;;;;;;-2.16;100.00;100463.78;6057535;23;20069;-76
2022/12/10 06:18:37;;;;;;;7.05;4.47;;;;;;;-2.02;100.00;100486.00;6048722;23;20567;-76
2022/12/10 06:21:10;;;;;;;4.07;3.78;;;;;;;-2.20;100.00;100444.94;6051482;23;20024;-76
2022/12/10 06:23:38;;;;;;;3.67;3.33;;;;;;;-2.06;100.00;100475.72;6046985;23;20025;-76
2022/12/10 06:26:19;;;;;;;7.00;5.60;;;;;;;-1.99;100.00;100487.69;6039805;23;20234;-75
2022/12/10 06:28:46;;;;;;;4.30;4.00;;;;;;;-1.83;100.00;100524.47;6038825;23;20090;-75
2022/12/10 06:31:13;;;;;;;5.55;5.07;;;;;;;-1.89;100.00;100522.78;6037770;23;20069;-75
2022/12/10 06:33:41;;;;;;;3.95;3.75;;;;;;;-2.23;100.00;100468.91;6042834;23;20030;-75
2022/12/10 06:36:09;;;;;;;4.53;4.25;;;;;;;-2.09;100.00;100510.00;6041417;23;20022;-75
2022/12/10 06:38:36;;;;;;;4.05;3.65;;;;;;;-1.87;100.00;100527.94;6035661;23;20061;-75
2022/12/10 06:41:09;;;;;;;9.85;4.88;;;;;;;-2.23;100.00;100479.19;6037153;23;20347;-76
2022/12/10 06:43:36;;;;;;;;;;;;;;;-1.89;100.00;100540.78;6036900;23;20038;-77
2022/12/10 06:46:10;;;;;;;3.83;3.47;;;;;;;-2.16;100.00;100516.03;6014189;23;19906;-75
2022/12/10 06:48:37;;;;;;;4.82;3.85;;;;;;;-1.95;100.00;100535.66;6035308;23;20421;-75
2022/12/10 06:51:05;;;;;;;4.72;4.43;;;;;;;-1.95;100.00;100547.69;6038007;23;20010;-77
2022/12/10 06:53:34;;;;;;;7.80;5.20;;;;;;;-2.54;100.00;100455.31;6044441;23;20026;-76
2022/12/10 06:56:02;;;;;;;4.85;3.85;;;;;;;-1.88;100.00;100550.22;6034115;23;20031;-76
2022/12/10 06:58:29;;;;;;;7.07;4.88;;;;;;;-2.16;100.00;100515.19;6020119;23;20049;-76
2022/12/10 07:01:10;;;;;;;3.83;3.55;;;;;;;-1.94;100.00;100572.56;6034917;23;21411;-76
2022/12/10 07:03:37;;;;;;;3.35;3.20;;;;;;;-2.19;100.00;100520.31;6021770;23;20023;-75
2022/12/10 07:06:08;;;;;;;11.40;5.53;;;;;;;-2.09;100.00;100558.84;6036039;23;20027;-76
2022/12/10 07:08:35;;;;;;;18.23;5.55;;;;;;;-2.15;100.00;100561.44;6016454;23;20521;-76
2022/12/10 07:11:06;;;;;;;5.72;4.88;;;;;;;-2.11;100.00;100570.84;6052629;23;20025;-76
2022/12/10 07:13:33;;;;;;;11.60;4.95;;;;;;;-2.20;100.00;100573.47;6035491;23;20109;-76
2022/12/10 07:16:00;;;;;;;6.55;6.00;;;;;;;-2.68;100.00;100505.88;6039719;23;20023;-75
2022/12/10 07:18:27;;;;;;;8.20;4.97;;;;;;;-2.39;100.00;100551.22;6009683;23;20019;-76
2022/12/10 07:20:54;;;;;;;5.50;5.03;;;;;;;-2.82;100.00;100501.59;6033147;23;20019;-75
2022/12/10 07:23:20;;;;;;;9.88;6.32;;;;;;;-2.36;100.00;100569.22;5992796;23;20018;-76
2022/12/10 07:25:47;;;;;;;6.47;4.45;;;;;;;-2.55;100.00;100566.63;6022597;23;20028;-76
2022/12/10 07:28:13;;;;;;;6.85;6.35;;;;;;;-2.83;100.00;100491.31;6051891;23;20011;-76
2022/12/10 07:30:40;;;;;;;7.28;6.72;;;;;;;-2.65;100.00;100531.53;6044231;23;20465;-76
2022/12/10 07:33:06;;;;;;;5.65;4.22;;;;;;;-2.63;100.00;100530.69;6019655;23;20037;-74
2022/12/10 07:35:33;;;;;;;4.15;3.95;;;;;;;-2.52;100.00;100563.22;6016360;23;20496;-75
2022/12/10 07:37:59;;;;;;;13.43;5.32;;;;;;;-2.53;100.00;100541.78;6025230;23;20116;-76
2022/12/10 07:40:26;;;;;;;4.25;3.90;;;;;;;-2.26;100.00;100586.34;6053872;23;20461;-76
2022/12/10 07:42:52;;;;;;;10.23;5.60;;;;;;;-2.70;100.00;100534.13;6025020;23;20022;-76
2022/12/10 07:45:19;;;;;;;8.68;4.38;;;;;;;-3.18;100.00;100445.13;6044808;23;20391;-77
2022/12/10 07:47:45;;;;;;;9.57;5.93;;;;;;;-2.83;100.00;100505.03;6046903;23;20411;-75
2022/12/10 07:50:12;;;;;;;5.18;4.70;;;;;;;-3.51;100.00;100398.91;6013687;23;20426;-76
2022/12/10 07:52:38;;;;;;;4.10;3.90;;;;;;;-2.65;100.00;100557.22;6051830;23;20452;-76
2022/12/10 07:55:05;;;;;;;3.15;3.00;;;;;;;-2.40;100.00;100588.91;6033098;23;20356;-76
2022/12/10 07:57:32;;;;;;;3.15;2.95;;;;;;;-2.38;100.00;100602.63;6051030;23;20024;-76
2022/12/10 07:59:58;;;;;;;3.97;3.60;;;;;;;-2.81;100.00;100516.16;6041568;23;20225;-76
2022/12/10 08:02:25;;;;;;;3.63;3.47;;;;;;;-2.50;100.00;100558.94;6052502;23;20351;-75
2022/12/10 08:04:51;;;;;;;5.35;4.18;;;;;;;-2.48;100.00;100557.22;6037078;23;20374;-76
2022/12/10 08:07:18;;;;;;;3.85;3.55;;;;;;;-2.13;100.00;100610.28;6007980;23;20100;-75
2022/12/10 08:09:44;;;;;;;4.78;4.40;;;;;;;-2.56;100.00;100551.25;6015134;23;20030;-76
2022/12/10 08:12:11;;;;;;;8.35;6.93;;;;;;;-3.03;100.00;100460.50;6053300;23;20022;-76
2022/12/10 08:14:37;;;;;;;2.88;2.78;;;;;;;-2.46;100.00;100546.09;6024522;23;20029;-75
2022/12/10 08:17:04;;;;;;;4.90;4.35;;;;;;;-2.77;100.00;100485.31;6033503;23;20091;-77
2022/12/10 08:19:30;;;;;;;3.67;3.47;;;;;;;-2.74;100.00;100498.16;6035318;23;20568;-76
2022/12/10 08:21:57;;;;;;;8.63;5.28;;;;;;;-2.04;100.00;100618.00;6033682;23;20512;-75
2022/12/10 08:24:23;;;;;;;4.32;4.13;;;;;;;-2.38;100.00;100546.06;6022093;23;20041;-76
2022/12/10 08:26:50;;;;;;;6.93;4.53;;;;;;;-2.32;100.00;100547.78;6054162;23;20521;-75
2022/12/10 08:29:16;;;;;;;13.10;4.32;;;;;;;-1.88;100.00;100608.53;6030729;23;20046;-75
2022/12/10 08:31:42;;;;;;;3.80;3.60;;;;;;;-1.86;100.00;100617.09;6036162;23;20046;-76
2022/12/10 08:34:13;;;;;;;6.65;4.93;;;;;;;-1.59;100.00;100638.44;6038522;23;20025;-74
2022/12/10 08:36:39;;;;;;;8.75;4.95;;;;;;;-2.12;100.00;100560.59;6028193;23;20049;-76
2022/12/10 08:39:05;;;;;;;3.80;3.60;;;;;;;-1.88;100.00;100598.25;6039082;23;20037;-76
2022/12/10 08:41:32;;;;;;;8.27;4.72;;;;;;;-1.77;100.00;100611.06;6044786;23;20019;-76
2022/12/10 08:43:58;;;;;;;4.90;3.60;;;;;;;-2.28;100.00;100528.94;6035198;23;20030;-76
2022/12/10 08:46:26;;;;;;;3.47;3.38;;;;;;;-2.00;100.00;100614.56;6001071;23;20007;-75
2022/12/10 08:48:53;;;;;;;5.00;4.13;;;;;;;-1.68;100.00;100632.47;6018109;23;20076;-76
2022/12/10 08:51:20;;;;;;;4.07;3.83;;;;;;;-1.53;100.00;100653.88;6043979;23;20258;-75
2022/12/10 08:53:47;;;;;;;6.50;4.28;;;;;;;-1.96;100.00;100587.13;6006462;23;20475;-75
2022/12/10 08:56:14;;;;;;;5.82;4.47;;;;;;;-1.72;100.00;100609.34;6006804;23;20143;-75
2022/12/10 08:58:41;;;;;;;4.72;4.35;;;;;;;-1.74;100.00;100621.38;6009840;23;20426;-78
2022/12/10 09:01:10;;;;;;;6.05;5.55;;;;;;;-2.78;100.00;100455.38;6040696;23;20033;-77
2022/12/10 09:03:37;;;;;;;3.83;3.63;;;;;;;-2.41;100.00;100551.22;6044328;23;20445;-76
2022/12/10 09:06:09;;;;;;;11.77;6.03;;;;;;;-1.87;100.00;100666.81;6025539;23;20985;-75
2022/12/10 09:08:35;;;;;;;4.45;3.80;;;;;;;-2.02;100.00;100693.44;6036326;23;20030;-75
2022/12/10 09:11:06;;;;;;;5.15;4.68;;;;;;;-2.58;100.00;100586.34;6036483;23;20022;-76
2022/12/10 09:13:32;;;;;;;5.60;3.63;;;;;;;-2.36;100.00;100590.63;6020106;23;20242;-76
2022/12/10 09:15:59;;;;;;;4.47;4.07;;;;;;;-2.37;100.00;100558.06;6030859;23;20015;-76
2022/12/10 09:18:25;;;;;;;4.20;3.95;;;;;;;-2.17;100.00;100606.00;6033041;23;20291;-77
2022/12/10 09:20:51;;;;;;;4.18;3.88;;;;;;;-2.26;100.00;100623.16;6044993;23;20037;-76
2022/12/10 09:23:18;;;;;;;4.90;4.43;;;;;;;-2.89;100.00;100497.31;6012158;23;20027;-81
2022/12/10 09:25:44;;;;;;;5.57;5.18;;;;;;;-2.24;100.00;100561.47;6042404;23;20081;-76
2022/12/10 09:28:11;;;;;;;5.15;4.75;;;;;;;-1.78;100.00;100604.19;6037230;23;20043;-76
2022/12/10 09:30:37;;;;;;;5.53;4.60;;;;;;;-1.46;100.00;100653.84;6020761;23;20239;-75
2022/12/10 09:33:04;;;;;;;6.10;5.20;;;;;;;-1.31;100.00;100668.38;6021434;23;20378;-76
2022/12/10 09:35:30;;;;;;;4.30;4.10;;;;;;;-1.25;100.00;100681.22;6037048;23;20011;-75
2022/12/10 09:37:57;;;;;;;3.92;3.72;;;;;;;-1.53;100.00;100677.88;6047557;23;20078;-77
2022/12/10 09:40:40;;;;;;;4.45;4.05;;;;;;;-2.42;100.00;100509.25;6030635;23;20022;-75
2022/12/10 09:43:20;;;;;;;3.72;3.42;;;;;;;-1.65;100.00;100678.78;6042990;23;20519;-74
2022/12/10 09:46:04;;;;;;;5.30;4.80;;;;;;;-1.37;100.00;100677.84;6012303;23;20099;-75
2022/12/10 09:49:00;;;;;;;8.52;6.57;;;;;;;-1.57;100.00;100634.16;6047396;23;20792;-75
2022/12/10 09:51:31;;;;;;;8.27;5.35;;;;;;;-1.21;100.00;100659.75;6039055;23;20034;-76
2022/12/10 09:53:59;;;;;;;5.00;4.70;;;;;;;-0.92;100.00;100674.22;6055214;23;20013;-76
2022/12/10 09:56:34;;;;;;;5.00;4.38;;;;;;;-0.82;100.00;100678.44;6043653;23;20026;-75
2022/12/10 09:59:21;;;;;;;8.60;5.82;;;;;;;-1.10;100.00;100617.63;6042304;23;20023;-76
2022/12/10 10:02:02;;;;;;;4.32;3.80;;;;;;;-0.95;100.00;100689.66;6028233;23;20047;-75
2022/12/10 10:04:29;;;;;;;4.25;4.00;;;;;;;-1.65;100.00;100557.00;6057867;23;20500;-76
2022/12/10 10:06:56;;;;;;;6.65;4.97;;;;;;;-1.14;100.00;100611.66;6020393;23;20014;-75
2022/12/10 10:09:23;;;;;;;9.68;5.25;;;;;;;-1.19;100.00;100641.72;6057737;23;20014;-75
2022/12/10 10:11:50;;;;;;;5.63;3.78;;;;;;;-1.45;100.00;100600.66;6034501;23;20023;-75
2022/12/10 10:14:26;;;;;;;6.93;5.97;;;;;;;-1.12;100.00;100639.94;6031319;23;20102;-75
2022/12/10 10:17:07;;;;;;;4.35;3.90;;;;;;;-0.98;100.00;100661.38;6040691;23;20283;-75
2022/12/10 10:19:35;;;;;;;5.22;4.88;;;;;;;-0.94;100.00;100652.75;6036697;23;20365;-77
2022/12/10 10:22:03;;;;;;;3.22;3.10;;;;;;;-0.54;100.00;100693.75;6023616;23;20035;-75
2022/12/10 10:24:42;;;;;;;4.85;4.40;;;;;;;-0.50;100.00;100698.00;6044402;23;20055;-75
2022/12/10 10:27:17;;;;;;;4.28;3.95;;;;;;;-1.29;100.00;100610.00;5986079;23;20124;-76
2022/12/10 10:29:46;;;;;;;5.80;5.32;;;;;;;-0.69;100.00;100679.22;6041351;23;20348;-76
2022/12/10 10:32:22;;;;;;;6.93;6.13;;;;;;;-0.57;100.00;100685.16;6037255;23;20057;-75
2022/12/10 10:34:58;;;;;;;6.57;5.80;;;;;;;-0.56;100.00;100667.13;6016850;23;20032;-75
2022/12/10 10:37:42;;;;;;;7.15;4.95;;;;;;;-0.61;100.00;100636.22;6043757;23;20431;-77
2022/12/10 10:40:45;;;;;;;4.30;4.05;;;;;;;-0.46;100.00;100648.13;6027163;23;20044;-75
2022/12/10 10:43:24;;;;;;;5.82;5.00;;;;;;;-0.14;100.00;100702.88;5993451;23;20019;-75
2022/12/10 10:46:16;;;;;;;8.23;5.68;;;;;;;-0.44;100.00;100679.03;6041668;23;20236;-75
2022/12/10 10:48:43;;;;;;;13.18;4.13;;;;;;;-0.43;100.00;100665.28;6033851;23;20058;-76
2022/12/10 10:51:15;;;;;;;5.22;4.57;;;;;;;-0.18;100.00;100707.25;6038782;23;20026;-76
2022/12/10 10:53:45;;;;;;;10.77;6.07;;;;;;;-0.15;100.00;100711.50;6039419;23;20030;-75
2022/12/10 10:56:16;;;;;;;6.47;4.55;;;;;;;-0.28;100.00;100711.59;6045971;23;20017;-75
2022/12/10 10:58:52;;;;;;;5.38;3.85;;;;;;;-0.29;100.00;100717.63;6043632;23;20027;-77
2022/12/10 11:01:19;;;;;;;4.70;4.43;;;;;;;-0.89;100.00;100614.94;6033585;23;20011;-75
2022/12/10 11:03:54;;;;;;;6.05;5.47;;;;;;;-0.33;100.00;100718.50;6050157;23;20560;-75
2022/12/10 11:06:21;;;;;;;11.93;5.10;;;;;;;-0.34;100.00;100723.66;6033109;23;20686;-76
2022/12/10 11:08:48;;;;;;;4.78;4.47;;;;;;;-0.35;100.00;100742.59;6010629;23;20026;-76
2022/12/10 11:11:22;;;;;;;6.30;4.75;;;;;;;-0.36;100.00;100723.69;6038695;23;20200;-76
2022/12/10 11:13:49;;;;;;;12.10;5.82;;;;;;;-0.32;100.00;100734.81;6056109;23;20234;-76
2022/12/10 11:16:15;;;;;;;10.50;6.43;;;;;;;-0.39;100.00;100728.00;6010247;23;20078;-76
2022/12/10 11:18:52;;;;;;;4.50;4.10;;;;;;;-0.86;100.00;100634.69;6046885;23;20030;-75
2022/12/10 11:21:21;;;;;;;3.80;3.60;;;;;;;-0.99;100.00;100594.41;6016246;23;20022;-76
2022/12/10 11:23:52;;;;;;;5.18;4.78;;;;;;;-0.23;100.00;100729.63;6036047;23;20026;-75
2022/12/10 11:26:48;;;;;;;5.03;4.72;;;;;;;-0.75;100.00;100652.63;6016752;23;20030;-75
2022/12/10 11:29:20;;;;;;;5.40;4.72;;;;;;;-0.23;100.00;100720.16;6022992;23;20385;-75
2022/12/10 11:32:15;;;;;;;6.38;4.57;;;;;;;-0.99;100.00;100620.16;6038955;23;20316;-75
2022/12/10 11:35:01;;;;;;;9.82;5.35;;;;;;;-0.77;100.00;100654.38;6054006;23;20021;-76
2022/12/10 11:37:33;;;;;;;7.47;5.57;;;;;;;-0.78;100.00;100683.56;6030139;23;20086;-75
2022/12/10 11:40:16;;;;;;;6.20;5.60;;;;;;;-0.19;100.00;100720.13;6049886;23;20047;-75